NCAR-RAP Real-Time Weather Data

Output produced by METARs form (23 January 2018  15:56 UTC)
found at http://weather.rap.ucar.edu/surface/
 
Conditions at: KBKV observed 23 January 2018  15:53 UTC
Temperature: 23.9°C (75°F)
Dewpoint: 19.4°C (67°F) [RH = 76%]
Pressure (altimeter): 30.08 inches Hg (1018.7 mb)
[Sea-level pressure: 1018.4 mb]
Winds: from the SSW (210 degrees) at 15 MPH (13 knots; 6.8 m/s)
gusting to 22 MPH (19 knots; 9.9 m/s)
Visibility: 10 or more miles (16+ km)
Ceiling: 1500 feet AGL
Clouds: broken clouds at 1500 feet AGL
broken clouds at 2400 feet AGL
Present Weather: no significant weather observed at this time
KBKV 231553Z 21013G19KT 10SM BKN015 BKN024 24/19 A3008 RMK AO2 SLP184 T02390194

Conditions at: KBKV observed 23 January 2018  15:32 UTC
Temperature: 23.9°C (75°F)
Dewpoint: 19.4°C (67°F) [RH = 76%]
Pressure (altimeter): 30.08 inches Hg (1018.7 mb)
Winds: from the SW (220 degrees) at 13 MPH (11 knots; 5.7 m/s)
Visibility: 10 or more miles (16+ km)
Ceiling: 1500 feet AGL
Clouds: broken clouds at 1500 feet AGL
Present Weather: no significant weather observed at this time
KBKV 231532Z 22011KT 10SM BKN015 24/19 A3008 RMK AO2 T02390194

Conditions at: KBKV observed 23 January 2018  14:53 UTC
Temperature: 22.8°C (73°F)
Dewpoint: 20.0°C (68°F) [RH = 84%]
Pressure (altimeter): 30.08 inches Hg (1018.7 mb)
[Sea-level pressure: 1018.3 mb]
Winds: from the SSW (200 degrees) at 10 MPH (9 knots; 4.7 m/s)
Visibility: 10 or more miles (16+ km)
Ceiling: at least 12,000 feet AGL
Clouds: sky clear below 12,000 feet AGL
Present Weather: no significant weather observed at this time
KBKV 231453Z 20009KT 10SM CLR 23/20 A3008 RMK AO2 SLP183 T02280200 53012

Conditions at: KBKV observed 23 January 2018  13:53 UTC
Temperature: 20.0°C (68°F)
Dewpoint: 18.3°C (65°F) [RH = 90%]
Pressure (altimeter): 30.07 inches Hg (1018.4 mb)
[Sea-level pressure: 1018.0 mb]
Winds: calm
Visibility: 10 or more miles (16+ km)
Ceiling: at least 12,000 feet AGL
Clouds: sky clear below 12,000 feet AGL
Present Weather: no significant weather observed at this time
KBKV 231353Z 00000KT 10SM CLR 20/18 A3007 RMK AO2 SLP180 T02000183

Conditions at: KBKV observed 23 January 2018  12:53 UTC
Temperature: 18.9°C (66°F)
Dewpoint: 17.8°C (64°F) [RH = 93%]
Pressure (altimeter): 30.05 inches Hg (1017.7 mb)
[Sea-level pressure: 1017.3 mb]
Winds: from the S (180 degrees) at 6 MPH (5 knots; 2.6 m/s)
Visibility: 10 or more miles (16+ km)
Ceiling: at least 12,000 feet AGL
Clouds: sky clear below 12,000 feet AGL
Present Weather: no significant weather observed at this time
KBKV 231253Z 18005KT 10SM CLR 19/18 A3005 RMK AO2 SLP173 T01890178

Conditions at: KBKV observed 23 January 2018  11:53 UTC
Temperature: 18.9°C (66°F)
Dewpoint: 17.8°C (64°F) [RH = 93%]
Pressure (altimeter): 30.04 inches Hg (1017.4 mb)
[Sea-level pressure: 1017.2 mb]
Winds: from the S (180 degrees) at 8 MPH (7 knots; 3.6 m/s)
Visibility: 10 or more miles (16+ km)
Ceiling: at least 12,000 feet AGL
Clouds: few clouds at 10000 feet AGL
scattered clouds at 12000 feet AGL
Present Weather: no significant weather observed at this time
KBKV 231153Z 18007KT 10SM FEW100 SCT120 19/18 A3004 RMK AO2 RAB01E35 SLP172 P0001 60002 70055 T01890178 10189 20178 53006

Conditions at: KBKV observed 23 January 2018  10:53 UTC
Temperature: 18.3°C (65°F)
Dewpoint: 17.8°C (64°F) [RH = 97%]
Pressure (altimeter): 30.04 inches Hg (1017.4 mb)
[Sea-level pressure: 1016.9 mb]
Winds: from the S (170 degrees) at 7 MPH (6 knots; 3.1 m/s)
Visibility: 10 or more miles (16+ km)
Ceiling: 11000 feet AGL
Clouds: broken clouds at 11000 feet AGL
Present Weather: automated observation with no human augmentation;
there may or may not be significant weather present at this time
KBKV 231053Z AUTO 17006KT 10SM BKN110 18/18 A3004 RMK AO2 SLP169 T01830178

Conditions at: KBKV observed 23 January 2018  09:53 UTC
Temperature: 18.3°C (65°F)
Dewpoint: 17.2°C (63°F) [RH = 93%]
Pressure (altimeter): 30.03 inches Hg (1017.0 mb)
[Sea-level pressure: 1016.7 mb]
Winds: from the S (190 degrees) at 7 MPH (6 knots; 3.1 m/s)
Visibility: 10 or more miles (16+ km)
Ceiling: at least 12,000 feet AGL
Clouds: sky clear below 12,000 feet AGL
Present Weather: automated observation with no human augmentation;
there may or may not be significant weather present at this time
KBKV 230953Z AUTO 19006KT 10SM CLR 18/17 A3003 RMK AO2 SLP167 T01830172

Conditions at: KBKV observed 23 January 2018  08:53 UTC
Temperature: 17.8°C (64°F)
Dewpoint: 17.2°C (63°F) [RH = 96%]
Pressure (altimeter): 30.02 inches Hg (1016.7 mb)
[Sea-level pressure: 1016.5 mb]
Winds: from the S (170 degrees) at 5 MPH (4 knots; 2.1 m/s)
Visibility: 10 or more miles (16+ km)
Ceiling: 5500 feet AGL
Clouds: broken clouds at 5500 feet AGL
Present Weather: automated observation with no human augmentation;
there may or may not be significant weather present at this time
KBKV 230853Z AUTO 17004KT 10SM BKN055 18/17 A3002 RMK AO2 SLP165 60001 T01780172 55008

Conditions at: KBKV observed 23 January 2018  07:53 UTC
Temperature: 17.8°C (64°F)
Dewpoint: 17.2°C (63°F) [RH = 96%]
Pressure (altimeter): 30.02 inches Hg (1016.7 mb)
[Sea-level pressure: 1016.4 mb]
Winds: from the ESE (120 degrees) at 5 MPH (4 knots; 2.1 m/s)
Visibility: 10 or more miles (16+ km)
Ceiling: at least 12,000 feet AGL
Clouds: few clouds at 5500 feet AGL
Present Weather: automated observation with no human augmentation;
there may or may not be significant weather present at this time
KBKV 230753Z AUTO 12004KT 10SM FEW055 18/17 A3002 RMK AO2 RAB0659E23 SLP164 P0001 T01780172

Conditions at: KBKV observed 23 January 2018  06:53 UTC
Temperature: 17.8°C (64°F)
Dewpoint: 17.8°C (64°F) [RH = 100%]
Pressure (altimeter): 30.05 inches Hg (1017.7 mb)
[Sea-level pressure: 1017.3 mb]
Winds: calm
Visibility: 10 or more miles (16+ km)
Ceiling: 5000 feet AGL
Clouds: overcast cloud deck at 5000 feet AGL
Present Weather: automated observation with no human augmentation;
there may or may not be significant weather present at this time
KBKV 230653Z AUTO 00000KT 10SM OVC050 18/18 A3005 RMK AO2 RAE03 SLP173 P0000 T01780178

Conditions at: KBKV observed 23 January 2018  05:53 UTC
Temperature: 17.8°C (64°F)
Dewpoint: 17.8°C (64°F) [RH = 100%]
Pressure (altimeter): 30.05 inches Hg (1017.7 mb)
[Sea-level pressure: 1017.3 mb]
Winds: calm
Visibility: 10 or more miles (16+ km)
Ceiling: 3900 feet AGL
Clouds: few clouds at 2900 feet AGL
broken clouds at 3900 feet AGL
overcast cloud deck at 6000 feet AGL
Present Weather: -RA  (light rain)
KBKV 230553Z AUTO 00000KT 10SM -RA FEW029 BKN039 OVC060 18/18 A3005 RMK AO2 SLP173 P0015 60053 T01780178 10222 20178 58011

Conditions at: KBKV observed 23 January 2018  05:10 UTC
Temperature: 17.8°C (64°F)
Dewpoint: 17.8°C (64°F) [RH = 100%]
Pressure (altimeter): 30.06 inches Hg (1018.0 mb)
Winds: from the SE (130 degrees) at 3 MPH (3 knots; 1.6 m/s)
Visibility: 10 or more miles (16+ km)
Ceiling: 3300 feet AGL
Clouds: scattered clouds at 300 feet AGL
broken clouds at 3300 feet AGL
overcast cloud deck at 4900 feet AGL
Present Weather: RA  (rain)
KBKV 230510Z AUTO 13003KT 10SM RA SCT003 BKN033 OVC049 18/18 A3006 RMK AO2 PRESFR P0004 T01780178

Conditions at: KBKV observed 23 January 2018  05:02 UTC
Temperature: 17.8°C (64°F)
Dewpoint: 17.2°C (63°F) [RH = 96%]
Pressure (altimeter): 30.07 inches Hg (1018.4 mb)
Winds: from the SW (220 degrees) at 3 MPH (3 knots; 1.6 m/s)
Visibility: 10 or more miles (16+ km)
Ceiling: 300 feet AGL
Clouds: broken clouds at 300 feet AGL
broken clouds at 2700 feet AGL
overcast cloud deck at 5000 feet AGL
Present Weather: RA  (rain)
KBKV 230502Z AUTO 22003KT 10SM RA BKN003 BKN027 OVC050 18/17 A3007 RMK AO2 P0002 T01780172

Conditions at: KBKV observed 23 January 2018  04:53 UTC
Temperature: 17.8°C (64°F)
Dewpoint: 17.2°C (63°F) [RH = 96%]
Pressure (altimeter): 30.08 inches Hg (1018.7 mb)
[Sea-level pressure: 1018.4 mb]
Winds: from the WSW (240 degrees) at 6 MPH (5 knots; 2.6 m/s)
Visibility: 10 or more miles (16+ km)
Ceiling: 4600 feet AGL
Clouds: scattered clouds at 300 feet AGL
broken clouds at 4600 feet AGL
overcast cloud deck at 5500 feet AGL
Present Weather: -RA  (light rain)
KBKV 230453Z AUTO 24005KT 10SM -RA SCT003 BKN046 OVC055 18/17 A3008 RMK AO2 SLP184 P0012 T01780172 402830106

Conditions at: KBKV observed 23 January 2018  03:53 UTC
Temperature: 18.3°C (65°F)
Dewpoint: 17.8°C (64°F) [RH = 97%]
Pressure (altimeter): 30.06 inches Hg (1018.0 mb)
[Sea-level pressure: 1017.9 mb]
Winds: from the N (10 degrees) at 5 MPH (4 knots; 2.1 m/s)
Visibility: 10 or more miles (16+ km)
Ceiling: 7000 feet AGL
Clouds: few clouds at 500 feet AGL
broken clouds at 7000 feet AGL
overcast cloud deck at 8500 feet AGL
Present Weather: +RA  (heavy rain)
KBKV 230353Z AUTO 01004KT 10SM +RA FEW005 BKN070 OVC085 18/18 A3006 RMK AO2 PRESFR SLP179 P0019 T01830178

Conditions at: KBKV observed 23 January 2018  03:45 UTC
Temperature: 18.3°C (65°F)
Dewpoint: 17.8°C (64°F) [RH = 97%]
Pressure (altimeter): 30.08 inches Hg (1018.7 mb)
Winds: from the WNW (290 degrees) at 3 MPH (3 knots; 1.6 m/s)
Visibility: 10 or more miles (16+ km)
Ceiling: 7000 feet AGL
Clouds: few clouds at 500 feet AGL
scattered clouds at 5500 feet AGL
overcast cloud deck at 7000 feet AGL
Present Weather: RA  (rain)
KBKV 230345Z AUTO 29003KT 10SM RA FEW005 SCT055 OVC070 18/18 A3008 RMK AO2 P0014 T01830178

Conditions at: KBKV observed 23 January 2018  02:53 UTC
Temperature: 18.3°C (65°F)
Dewpoint: 17.8°C (64°F) [RH = 97%]
Pressure (altimeter): 30.08 inches Hg (1018.7 mb)
[Sea-level pressure: 1018.4 mb]
Winds: calm
Visibility: 10 or more miles (16+ km)
Ceiling: 5500 feet AGL
Clouds: broken clouds at 5500 feet AGL
overcast cloud deck at 8000 feet AGL
Present Weather: -RA  (light rain)
KBKV 230253Z 00000KT 10SM -RA BKN055 OVC080 18/18 A3008 RMK AO2 SLP184 P0004 60007 T01830178 51013

Conditions at: KBKV observed 23 January 2018  01:53 UTC
Temperature: 18.3°C (65°F)
Dewpoint: 17.2°C (63°F) [RH = 93%]
Pressure (altimeter): 30.07 inches Hg (1018.4 mb)
[Sea-level pressure: 1018.2 mb]
Winds: from the WNW (300 degrees) at 3 MPH (3 knots; 1.6 m/s)
Visibility: 10 or more miles (16+ km)
Ceiling: 4500 feet AGL
Clouds: broken clouds at 4500 feet AGL
broken clouds at 6000 feet AGL
overcast cloud deck at 9000 feet AGL
Present Weather: RA  (rain)
KBKV 230153Z 30003KT 10SM RA BKN045 BKN060 OVC090 18/17 A3007 RMK AO2 RAE16B44 SLP182 P0003 T01830172

Conditions at: KBKV observed 23 January 2018  00:53 UTC
Temperature: 21.1°C (70°F)
Dewpoint: 16.7°C (62°F) [RH = 76%]
Pressure (altimeter): 30.07 inches Hg (1018.4 mb)
[Sea-level pressure: 1018.0 mb]
Winds: from the WNW (300 degrees) at 13 MPH (11 knots; 5.7 m/s)
Visibility: 10 or more miles (16+ km)
Ceiling: 5000 feet AGL
Clouds: few clouds at 4300 feet AGL
overcast cloud deck at 5000 feet AGL
Present Weather: -RA  (light rain)
KBKV 230053Z 30011KT 10SM -RA FEW043 OVC050 21/17 A3007 RMK AO2 RAB05E16B53 SLP180 P0000 T02110167

Conditions at: KBKV observed 22 January 2018  23:53 UTC
Temperature: 22.2°C (72°F)
Dewpoint: 16.1°C (61°F) [RH = 68%]
Pressure (altimeter): 30.04 inches Hg (1017.4 mb)
[Sea-level pressure: 1017.0 mb]
Winds: from the NNE (30 degrees) at 3 MPH (3 knots; 1.6 m/s)
Visibility: 10 or more miles (16+ km)
Ceiling: 9000 feet AGL
Clouds: broken clouds at 9000 feet AGL
broken clouds at 11000 feet AGL
Present Weather: no significant weather observed at this time
KBKV 222353Z 03003KT 10SM BKN090 BKN110 22/16 A3004 RMK AO2 SLP170 T02220161 10283 20217 51008

Conditions at: KBKV observed 22 January 2018  22:53 UTC
Temperature: 23.3°C (74°F)
Dewpoint: 14.4°C (58°F) [RH = 57%]
Pressure (altimeter): 30.03 inches Hg (1017.0 mb)
[Sea-level pressure: 1016.8 mb]
Winds: calm
Visibility: 10 or more miles (16+ km)
Ceiling: at least 12,000 feet AGL
Clouds: few clouds at 8000 feet AGL
scattered clouds at 10000 feet AGL
Present Weather: no significant weather observed at this time
KBKV 222253Z 00000KT 10SM FEW080 SCT100 23/14 A3003 RMK AO2 SLP168 T02330144

Conditions at: KBKV observed 22 January 2018  21:53 UTC
Temperature: 26.7°C (80°F)
Dewpoint: 14.4°C (58°F) [RH = 47%]
Pressure (altimeter): 30.03 inches Hg (1017.0 mb)
[Sea-level pressure: 1016.8 mb]
Winds: from the SW (230 degrees) at 3 MPH (3 knots; 1.6 m/s)
Visibility: 10 or more miles (16+ km)
Ceiling: at least 12,000 feet AGL
Clouds: few clouds at 5500 feet AGL
scattered clouds at 7000 feet AGL
scattered clouds at 11000 feet AGL
Present Weather: no significant weather observed at this time
KBKV 222153Z 23003KT 10SM FEW055 SCT070 SCT110 27/14 A3003 RMK AO2 SLP168 T02670144

Conditions at: KBKV observed 22 January 2018  20:53 UTC
Temperature: 28.3°C (83°F)
Dewpoint: 14.4°C (58°F) [RH = 43%]
Pressure (altimeter): 30.01 inches Hg (1016.3 mb)
[Sea-level pressure: 1016.2 mb]
Winds: from the SSE (160 degrees) at 12 MPH (10 knots; 5.2 m/s)
gusting to 18 MPH (16 knots; 8.3 m/s)
Visibility: 10 or more miles (16+ km)
Ceiling: at least 12,000 feet AGL
Clouds: few clouds at 5000 feet AGL
Present Weather: no significant weather observed at this time
KBKV 222053Z 16010G16KT 120V220 10SM FEW050 28/14 A3001 RMK AO2 SLP162 T02830144 55022

Conditions at: KBKV observed 22 January 2018  19:53 UTC
Temperature: 28.3°C (83°F)
Dewpoint: 14.4°C (58°F) [RH = 43%]
Pressure (altimeter): 30.01 inches Hg (1016.3 mb)
[Sea-level pressure: 1016.2 mb]
Winds: from the S (180 degrees) at 10 MPH (9 knots; 4.7 m/s)
Visibility: 10 or more miles (16+ km)
Ceiling: at least 12,000 feet AGL
Clouds: few clouds at 4700 feet AGL
Present Weather: no significant weather observed at this time
KBKV 221953Z 18009KT 10SM FEW047 28/14 A3001 RMK AO2 SLP162 T02830144

Conditions at: KBKV observed 22 January 2018  18:53 UTC
Temperature: 27.8°C (82°F)
Dewpoint: 16.1°C (61°F) [RH = 49%]
Pressure (altimeter): 30.04 inches Hg (1017.4 mb)
[Sea-level pressure: 1017.0 mb]
Winds: from the SSE (160 degrees) at 10 MPH (9 knots; 4.7 m/s)
Visibility: 7 miles (11 km)
Ceiling: 4600 feet AGL
Clouds: broken clouds at 4600 feet AGL
Present Weather: no significant weather observed at this time
KBKV 221853Z 16009KT 7SM BKN046 28/16 A3004 RMK AO2 SLP170 T02780161

Conditions at: KBKV observed 22 January 2018  17:53 UTC
Temperature: 27.2°C (81°F)
Dewpoint: 16.7°C (62°F) [RH = 53%]
Pressure (altimeter): 30.08 inches Hg (1018.7 mb)
[Sea-level pressure: 1018.4 mb]
Winds: from the S (170 degrees) at 12 MPH (10 knots; 5.2 m/s)
gusting to 18 MPH (16 knots; 8.3 m/s)
Visibility: 10 or more miles (16+ km)
Ceiling: at least 12,000 feet AGL
Clouds: few clouds at 3700 feet AGL
Present Weather: no significant weather observed at this time
KBKV 221753Z 17010G16KT 10SM FEW037 27/17 A3008 RMK AO2 SLP184 T02720167 10272 20106 58025

Conditions at: KBKV observed 22 January 2018  17:28 UTC
Temperature: 26.1°C (79°F)
Dewpoint: 16.7°C (62°F) [RH = 56%]
Pressure (altimeter): 30.11 inches Hg (1019.7 mb)
Winds: from the S (180 degrees) at 16 MPH (14 knots; 7.3 m/s)
gusting to 21 MPH (18 knots; 9.4 m/s)
Visibility: 10 or more miles (16+ km)
Ceiling: 3200 feet AGL
Clouds: broken clouds at 3200 feet AGL
broken clouds at 3900 feet AGL
Present Weather: no significant weather observed at this time
KBKV 221728Z 18014G18KT 10SM BKN032 BKN039 26/17 A3011 RMK AO2 T02610167

Conditions at: KBKV observed 22 January 2018  17:09 UTC
Temperature: 26.1°C (79°F)
Dewpoint: 17.2°C (63°F) [RH = 58%]
Pressure (altimeter): 30.12 inches Hg (1020.1 mb)
Winds: from the S (170 degrees) at 9 MPH (8 knots; 4.2 m/s)
gusting to 17 MPH (15 knots; 7.8 m/s)
Visibility: 10 or more miles (16+ km)
Ceiling: 2700 feet AGL
Clouds: broken clouds at 2700 feet AGL
broken clouds at 3600 feet AGL
Present Weather: no significant weather observed at this time
KBKV 221709Z 17008G15KT 10SM BKN027 BKN036 26/17 A3012 RMK AO2 T02610172

Conditions at: KBKV observed 22 January 2018  16:53 UTC
Temperature: 25.0°C (77°F)
Dewpoint: 17.8°C (64°F) [RH = 64%]
Pressure (altimeter): 30.13 inches Hg (1020.4 mb)
[Sea-level pressure: 1020.1 mb]
Winds: from the SSE (160 degrees) at 10 MPH (9 knots; 4.7 m/s)
Visibility: 10 or more miles (16+ km)
Ceiling: at least 12,000 feet AGL
Clouds: few clouds at 2200 feet AGL
scattered clouds at 2700 feet AGL
Present Weather: no significant weather observed at this time
KBKV 221653Z 16009KT 10SM FEW022 SCT027 25/18 A3013 RMK AO2 SLP201 T02500178